sensor_id;sensor_type;location;lat;lon;timestamp;pressure;altitude;pressure_sealevel;temperature;humidity
48874;BME280;66155;46.204;5.220;2023-02-28T00:01:53;98857.81;;;2.18;50.66
48874;BME280;66155;46.204;5.220;2023-02-28T00:06:53;98863.38;;;2.22;50.70
48874;BME280;66155;46.204;5.220;2023-02-28T00:11:54;98864.53;;;2.19;50.85
48874;BME280;66155;46.204;5.220;2023-02-28T00:16:54;98869.44;;;2.14;50.78
48874;BME280;66155;46.204;5.220;2023-02-28T00:21:54;98871.22;;;2.14;50.44
48874;BME280;66155;46.204;5.220;2023-02-28T00:26:55;98868.84;;;2.12;50.88
48874;BME280;66155;46.204;5.220;2023-02-28T00:31:55;98861.69;;;2.07;50.87
48874;BME280;66155;46.204;5.220;2023-02-28T00:36:56;98865.44;;;2.05;50.46
48874;BME280;66155;46.204;5.220;2023-02-28T00:41:56;98858.88;;;2.02;50.50
48874;BME280;66155;46.204;5.220;2023-02-28T00:46:58;98865.75;;;1.95;50.59
48874;BME280;66155;46.204;5.220;2023-02-28T00:51:58;98861.13;;;1.84;51.09
48874;BME280;66155;46.204;5.220;2023-02-28T00:56:59;98870.22;;;1.86;50.56
48874;BME280;66155;46.204;5.220;2023-02-28T01:02:00;98883.31;;;1.92;50.78
48874;BME280;66155;46.204;5.220;2023-02-28T01:07:00;98887.66;;;1.91;50.67
48874;BME280;66155;46.204;5.220;2023-02-28T01:12:01;98894.75;;;1.89;50.80
48874;BME280;66155;46.204;5.220;2023-02-28T01:17:01;98899.91;;;1.89;50.74
48874;BME280;66155;46.204;5.220;2023-02-28T01:22:04;98903.06;;;1.91;50.32
48874;BME280;66155;46.204;5.220;2023-02-28T01:27:04;98904.44;;;1.87;50.57
48874;BME280;66155;46.204;5.220;2023-02-28T01:32:05;98907.91;;;1.79;50.80
48874;BME280;66155;46.204;5.220;2023-02-28T01:37:05;98902.97;;;1.78;50.85
48874;BME280;66155;46.204;5.220;2023-02-28T01:42:08;98904.66;;;1.70;50.92
48874;BME280;66155;46.204;5.220;2023-02-28T01:47:09;98914.69;;;1.65;50.99
48874;BME280;66155;46.204;5.220;2023-02-28T01:52:11;98916.63;;;1.63;51.06
48874;BME280;66155;46.204;5.220;2023-02-28T01:57:21;98910.88;;;1.61;50.69
48874;BME280;66155;46.204;5.220;2023-02-28T02:02:24;98907.72;;;1.59;51.06
48874;BME280;66155;46.204;5.220;2023-02-28T02:07:25;98897.63;;;1.58;51.46
48874;BME280;66155;46.204;5.220;2023-02-28T02:12:55;98901.38;;;1.55;51.63
48874;BME280;66155;46.204;5.220;2023-02-28T02:18:08;98908.72;;;1.58;51.80
48874;BME280;66155;46.204;5.220;2023-02-28T02:39:20;98885.81;;;1.42;52.06
48874;BME280;66155;46.204;5.220;2023-02-28T02:44:28;98893.69;;;1.40;52.08
48874;BME280;66155;46.204;5.220;2023-02-28T02:49:33;98895.66;;;1.38;52.21
48874;BME280;66155;46.204;5.220;2023-02-28T02:54:36;98888.94;;;1.37;52.16
48874;BME280;66155;46.204;5.220;2023-02-28T02:59:40;98892.66;;;1.35;52.04
48874;BME280;66155;46.204;5.220;2023-02-28T03:04:48;98898.88;;;1.25;52.14
48874;BME280;66155;46.204;5.220;2023-02-28T03:09:56;98898.88;;;1.25;52.38
48874;BME280;66155;46.204;5.220;2023-02-28T03:30:59;98913.56;;;1.17;52.55
48874;BME280;66155;46.204;5.220;2023-02-28T03:36:12;98916.22;;;1.08;52.60
48874;BME280;66155;46.204;5.220;2023-02-28T03:41:17;98915.00;;;1.04;52.82
48874;BME280;66155;46.204;5.220;2023-02-28T03:46:24;98910.41;;;0.85;53.44
48874;BME280;66155;46.204;5.220;2023-02-28T03:51:26;98907.59;;;0.80;53.28
48874;BME280;66155;46.204;5.220;2023-02-28T03:56:42;98910.97;;;0.80;53.14
48874;BME280;66155;46.204;5.220;2023-02-28T04:01:45;98911.66;;;0.74;53.06
48874;BME280;66155;46.204;5.220;2023-02-28T04:06:50;98914.06;;;0.61;53.54
48874;BME280;66155;46.204;5.220;2023-02-28T04:11:52;98914.41;;;0.57;53.28
48874;BME280;66155;46.204;5.220;2023-02-28T04:16:52;98923.94;;;0.64;53.38
48874;BME280;66155;46.204;5.220;2023-02-28T04:21:53;98928.56;;;0.68;53.40
48874;BME280;66155;46.204;5.220;2023-02-28T04:26:55;98925.81;;;0.70;53.22
48874;BME280;66155;46.204;5.220;2023-02-28T04:31:57;98927.50;;;0.78;53.59
48874;BME280;66155;46.204;5.220;2023-02-28T04:36:59;98921.84;;;0.82;53.20
48874;BME280;66155;46.204;5.220;2023-02-28T04:42:00;98934.28;;;0.85;53.25
48874;BME280;66155;46.204;5.220;2023-02-28T04:47:01;98941.63;;;0.88;53.31
48874;BME280;66155;46.204;5.220;2023-02-28T04:52:01;98937.84;;;0.84;53.58
48874;BME280;66155;46.204;5.220;2023-02-28T04:57:02;98939.41;;;0.85;53.33
48874;BME280;66155;46.204;5.220;2023-02-28T05:02:02;98950.69;;;0.69;53.88
48874;BME280;66155;46.204;5.220;2023-02-28T05:07:06;98953.69;;;0.35;55.35
48874;BME280;66155;46.204;5.220;2023-02-28T05:12:08;98960.31;;;0.29;54.53
48874;BME280;66155;46.204;5.220;2023-02-28T05:17:09;98965.03;;;0.17;55.04
48874;BME280;66155;46.204;5.220;2023-02-28T05:22:14;98961.53;;;0.18;54.64
48874;BME280;66155;46.204;5.220;2023-02-28T05:27:16;98967.22;;;0.06;55.34
48874;BME280;66155;46.204;5.220;2023-02-28T05:32:17;98972.97;;;0.08;55.45
48874;BME280;66155;46.204;5.220;2023-02-28T05:37:17;98971.53;;;0.05;55.11
48874;BME280;66155;46.204;5.220;2023-02-28T05:42:18;98971.03;;;-0.13;55.76
48874;BME280;66155;46.204;5.220;2023-02-28T05:47:18;98976.56;;;-0.25;55.93
48874;BME280;66155;46.204;5.220;2023-02-28T05:52:19;98977.19;;;-0.23;55.85
48874;BME280;66155;46.204;5.220;2023-02-28T05:57:19;98979.03;;;-0.16;55.43
48874;BME280;66155;46.204;5.220;2023-02-28T06:02:20;98985.81;;;-0.01;55.45
48874;BME280;66155;46.204;5.220;2023-02-28T06:07:20;98987.81;;;0.12;54.88
48874;BME280;66155;46.204;5.220;2023-02-28T06:12:22;98978.44;;;0.05;54.86
48874;BME280;66155;46.204;5.220;2023-02-28T06:17:23;98993.22;;;-0.06;55.38
48874;BME280;66155;46.204;5.220;2023-02-28T06:22:23;98989.00;;;0.02;55.25
48874;BME280;66155;46.204;5.220;2023-02-28T06:27:24;98987.09;;;0.04;55.36
48874;BME280;66155;46.204;5.220;2023-02-28T06:32:24;98988.84;;;0.03;55.54
48874;BME280;66155;46.204;5.220;2023-02-28T06:37:25;99005.25;;;-0.06;55.84
48874;BME280;66155;46.204;5.220;2023-02-28T06:42:26;99002.69;;;-0.06;55.46
48874;BME280;66155;46.204;5.220;2023-02-28T06:47:30;99006.50;;;-0.02;55.63
48874;BME280;66155;46.204;5.220;2023-02-28T06:52:31;99004.03;;;-0.18;55.86
48874;BME280;66155;46.204;5.220;2023-02-28T06:57:33;99005.03;;;-0.28;56.59
48874;BME280;66155;46.204;5.220;2023-02-28T07:02:35;99016.94;;;-0.43;56.84
48874;BME280;66155;46.204;5.220;2023-02-28T07:07:36;99016.94;;;-0.43;56.75
48874;BME280;66155;46.204;5.220;2023-02-28T07:12:39;99019.97;;;-0.40;56.43
48874;BME280;66155;46.204;5.220;2023-02-28T07:17:39;99028.78;;;-0.42;56.48
48874;BME280;66155;46.204;5.220;2023-02-28T07:22:40;99038.06;;;-0.41;56.86
48874;BME280;66155;46.204;5.220;2023-02-28T07:27:41;99051.47;;;-0.31;56.39
48874;BME280;66155;46.204;5.220;2023-02-28T07:32:42;99051.06;;;-0.11;55.86
48874;BME280;66155;46.204;5.220;2023-02-28T07:37:42;99049.03;;;0.07;55.44
48874;BME280;66155;46.204;5.220;2023-02-28T07:42:43;99047.63;;;0.28;55.31
48874;BME280;66155;46.204;5.220;2023-02-28T07:47:44;99050.81;;;0.30;55.41
48874;BME280;66155;46.204;5.220;2023-02-28T07:52:45;99050.59;;;0.40;55.05
48874;BME280;66155;46.204;5.220;2023-02-28T07:57:46;99056.34;;;0.42;55.11
48874;BME280;66155;46.204;5.220;2023-02-28T08:02:46;99053.00;;;0.41;54.81
48874;BME280;66155;46.204;5.220;2023-02-28T08:07:49;99056.16;;;0.43;54.51
48874;BME280;66155;46.204;5.220;2023-02-28T08:12:49;99065.22;;;0.54;54.75
48874;BME280;66155;46.204;5.220;2023-02-28T08:17:50;99069.47;;;0.62;54.41
48874;BME280;66155;46.204;5.220;2023-02-28T08:22:50;99067.75;;;0.77;54.44
48874;BME280;66155;46.204;5.220;2023-02-28T08:27:52;99074.59;;;0.85;53.92
48874;BME280;66155;46.204;5.220;2023-02-28T08:32:53;99078.94;;;0.99;53.94
48874;BME280;66155;46.204;5.220;2023-02-28T08:37:54;99084.63;;;1.09;53.63
48874;BME280;66155;46.204;5.220;2023-02-28T08:42:55;99095.16;;;1.14;53.50
48874;BME280;66155;46.204;5.220;2023-02-28T08:47:55;99093.31;;;1.23;53.48
48874;BME280;66155;46.204;5.220;2023-02-28T08:52:55;99105.72;;;1.35;53.44
48874;BME280;66155;46.204;5.220;2023-02-28T08:57:56;99102.63;;;1.39;53.73
48874;BME280;66155;46.204;5.220;2023-02-28T09:02:56;99117.25;;;1.54;52.89
48874;BME280;66155;46.204;5.220;2023-02-28T09:07:57;99118.75;;;1.78;52.45
48874;BME280;66155;46.204;5.220;2023-02-28T09:12:58;99109.59;;;2.05;52.52
48874;BME280;66155;46.204;5.220;2023-02-28T09:17:58;99112.66;;;2.15;51.66
48874;BME280;66155;46.204;5.220;2023-02-28T09:22:59;99111.38;;;2.04;51.60
48874;BME280;66155;46.204;5.220;2023-02-28T09:27:59;99111.31;;;2.19;51.86
48874;BME280;66155;46.204;5.220;2023-02-28T09:33:00;99116.66;;;2.39;51.57
48874;BME280;66155;46.204;5.220;2023-02-28T09:38:00;99116.63;;;2.54;51.14
48874;BME280;66155;46.204;5.220;2023-02-28T09:43:04;99120.59;;;2.78;50.72
48874;BME280;66155;46.204;5.220;2023-02-28T09:48:12;99129.19;;;2.64;51.12
48874;BME280;66155;46.204;5.220;2023-02-28T10:03:43;99126.09;;;3.25;50.71
48874;BME280;66155;46.204;5.220;2023-02-28T10:14:15;99138.00;;;3.26;50.55
48874;BME280;66155;46.204;5.220;2023-02-28T10:24:26;99122.41;;;3.34;50.43
48874;BME280;66155;46.204;5.220;2023-02-28T10:29:31;99133.38;;;3.43;50.30
48874;BME280;66155;46.204;5.220;2023-02-28T10:34:32;99138.34;;;3.51;50.02
48874;BME280;66155;46.204;5.220;2023-02-28T10:39:36;99140.72;;;3.81;49.63
48874;BME280;66155;46.204;5.220;2023-02-28T10:44:37;99129.28;;;3.97;49.34
48874;BME280;66155;46.204;5.220;2023-02-28T10:49:46;99138.44;;;4.06;48.79
48874;BME280;66155;46.204;5.220;2023-02-28T10:54:47;99136.25;;;4.10;49.02
48874;BME280;66155;46.204;5.220;2023-02-28T10:59:52;99136.13;;;4.31;48.57
48874;BME280;66155;46.204;5.220;2023-02-28T11:04:55;99134.38;;;4.38;47.82
48874;BME280;66155;46.204;5.220;2023-02-28T11:09:57;99138.34;;;4.41;48.23
48874;BME280;66155;46.204;5.220;2023-02-28T11:15:03;99124.81;;;4.26;47.84
48874;BME280;66155;46.204;5.220;2023-02-28T11:20:06;99119.69;;;4.46;47.55
48874;BME280;66155;46.204;5.220;2023-02-28T11:25:16;99129.81;;;4.47;47.30
48874;BME280;66155;46.204;5.220;2023-02-28T11:30:45;99118.53;;;4.62;46.79
48874;BME280;66155;46.204;5.220;2023-02-28T11:35:46;99108.44;;;4.73;46.97
48874;BME280;66155;46.204;5.220;2023-02-28T11:56:25;99100.50;;;4.75;46.72
48874;BME280;66155;46.204;5.220;2023-02-28T12:01:54;99090.53;;;4.65;46.86
48874;BME280;66155;46.204;5.220;2023-02-28T12:07:16;99090.75;;;4.64;47.12
48874;BME280;66155;46.204;5.220;2023-02-28T12:28:51;99071.91;;;4.76;46.85
48874;BME280;66155;46.204;5.220;2023-02-28T12:34:03;99060.75;;;4.83;46.53
48874;BME280;66155;46.204;5.220;2023-02-28T12:39:12;99060.78;;;4.96;46.39
48874;BME280;66155;46.204;5.220;2023-02-28T12:44:30;99051.56;;;5.20;46.47
48874;BME280;66155;46.204;5.220;2023-02-28T12:49:42;99052.72;;;5.89;44.93
48874;BME280;66155;46.204;5.220;2023-02-28T12:54:52;99039.94;;;6.40;44.68
48874;BME280;66155;46.204;5.220;2023-02-28T13:00:00;99039.97;;;6.33;44.31
48874;BME280;66155;46.204;5.220;2023-02-28T13:05:29;99033.03;;;6.84;43.61
48874;BME280;66155;46.204;5.220;2023-02-28T13:10:45;99039.91;;;7.34;42.57
48874;BME280;66155;46.204;5.220;2023-02-28T13:16:06;99022.91;;;7.38;42.17
48874;BME280;66155;46.204;5.220;2023-02-28T13:21:10;99019.78;;;7.48;42.19
48874;BME280;66155;46.204;5.220;2023-02-28T13:31:31;99022.31;;;7.73;41.16
48874;BME280;66155;46.204;5.220;2023-02-28T13:36:34;99021.13;;;7.99;41.21
48874;BME280;66155;46.204;5.220;2023-02-28T13:52:04;99039.38;;;7.62;41.31
48874;BME280;66155;46.204;5.220;2023-02-28T13:57:57;99019.50;;;8.59;40.10
48874;BME280;66155;46.204;5.220;2023-02-28T14:08:25;99027.53;;;9.57;38.07
48874;BME280;66155;46.204;5.220;2023-02-28T14:13:43;99024.63;;;11.39;34.68
48874;BME280;66155;46.204;5.220;2023-02-28T14:19:02;99011.72;;;11.77;34.17
48874;BME280;66155;46.204;5.220;2023-02-28T14:34:53;99011.75;;;9.35;38.06
48874;BME280;66155;46.204;5.220;2023-02-28T14:39:55;99007.97;;;9.83;37.25
48874;BME280;66155;46.204;5.220;2023-02-28T14:44:56;99024.09;;;9.97;37.30
48874;BME280;66155;46.204;5.220;2023-02-28T14:49:58;99005.03;;;8.98;38.46
48874;BME280;66155;46.204;5.220;2023-02-28T14:55:03;99006.25;;;8.06;40.04
48874;BME280;66155;46.204;5.220;2023-02-28T15:00:21;99022.47;;;7.41;41.67
48874;BME280;66155;46.204;5.220;2023-02-28T15:05:30;99021.66;;;7.40;41.94
48874;BME280;66155;46.204;5.220;2023-02-28T15:10:31;99024.69;;;7.19;42.00
48874;BME280;66155;46.204;5.220;2023-02-28T15:20:50;99007.84;;;6.91;42.74
48874;BME280;66155;46.204;5.220;2023-02-28T15:25:52;99007.75;;;6.79;43.17
48874;BME280;66155;46.204;5.220;2023-02-28T15:31:02;99016.16;;;6.50;44.02
48874;BME280;66155;46.204;5.220;2023-02-28T15:36:13;99009.47;;;6.42;44.19
48874;BME280;66155;46.204;5.220;2023-02-28T15:41:36;99023.34;;;6.73;44.00
48874;BME280;66155;46.204;5.220;2023-02-28T15:46:53;99012.97;;;6.54;43.98
48874;BME280;66155;46.204;5.220;2023-02-28T15:51:58;99011.69;;;6.06;45.17
48874;BME280;66155;46.204;5.220;2023-02-28T15:57:04;99026.47;;;5.93;45.77
48874;BME280;66155;46.204;5.220;2023-02-28T16:02:19;99048.41;;;5.83;45.74
48874;BME280;66155;46.204;5.220;2023-02-28T16:07:20;99031.94;;;5.71;46.27
48874;BME280;66155;46.204;5.220;2023-02-28T16:12:25;99034.72;;;5.69;46.12
48874;BME280;66155;46.204;5.220;2023-02-28T16:17:28;99037.34;;;5.63;46.95
48874;BME280;66155;46.204;5.220;2023-02-28T16:22:29;99039.53;;;5.59;46.78
48874;BME280;66155;46.204;5.220;2023-02-28T16:27:36;99049.50;;;5.56;47.28
48874;BME280;66155;46.204;5.220;2023-02-28T16:32:37;99042.00;;;5.34;47.71
48874;BME280;66155;46.204;5.220;2023-02-28T16:37:38;99047.81;;;5.23;47.96
48874;BME280;66155;46.204;5.220;2023-02-28T16:42:39;99046.44;;;5.13;47.71
48874;BME280;66155;46.204;5.220;2023-02-28T16:47:40;99052.00;;;5.10;48.70
48874;BME280;66155;46.204;5.220;2023-02-28T16:52:41;99059.38;;;5.00;48.67
48874;BME280;66155;46.204;5.220;2023-02-28T16:57:42;99048.25;;;4.86;49.19
48874;BME280;66155;46.204;5.220;2023-02-28T17:02:43;99071.69;;;4.71;49.05
48874;BME280;66155;46.204;5.220;2023-02-28T17:07:44;99069.50;;;4.55;49.91
48874;BME280;66155;46.204;5.220;2023-02-28T17:12:45;99074.44;;;4.36;50.78
48874;BME280;66155;46.204;5.220;2023-02-28T17:17:47;99074.22;;;4.31;50.45
48874;BME280;66155;46.204;5.220;2023-02-28T17:22:55;99066.69;;;4.30;50.83
48874;BME280;66155;46.204;5.220;2023-02-28T17:27:56;99082.13;;;4.16;51.67
48874;BME280;66155;46.204;5.220;2023-02-28T17:32:56;99073.94;;;3.99;51.99
48874;BME280;66155;46.204;5.220;2023-02-28T17:37:57;99085.66;;;3.95;52.40
48874;BME280;66155;46.204;5.220;2023-02-28T17:42:57;99092.38;;;3.90;52.02
48874;BME280;66155;46.204;5.220;2023-02-28T17:47:59;99095.09;;;3.81;52.72
48874;BME280;66155;46.204;5.220;2023-02-28T17:52:59;99098.69;;;3.80;52.80
48874;BME280;66155;46.204;5.220;2023-02-28T17:58:01;99099.44;;;3.74;53.00
48874;BME280;66155;46.204;5.220;2023-02-28T18:03:03;99103.19;;;3.72;52.90
48874;BME280;66155;46.204;5.220;2023-02-28T18:08:04;99117.66;;;3.66;53.39
48874;BME280;66155;46.204;5.220;2023-02-28T18:13:04;99123.19;;;3.63;53.50
48874;BME280;66155;46.204;5.220;2023-02-28T18:18:05;99113.47;;;3.65;53.99
48874;BME280;66155;46.204;5.220;2023-02-28T18:23:06;99134.69;;;3.67;53.38
48874;BME280;66155;46.204;5.220;2023-02-28T18:28:07;99121.81;;;3.67;53.81
48874;BME280;66155;46.204;5.220;2023-02-28T18:33:07;99125.38;;;3.66;54.19
48874;BME280;66155;46.204;5.220;2023-02-28T18:38:15;99127.13;;;3.66;54.28
48874;BME280;66155;46.204;5.220;2023-02-28T18:43:15;99125.16;;;3.61;54.25
48874;BME280;66155;46.204;5.220;2023-02-28T18:48:16;99139.78;;;3.60;54.80
48874;BME280;66155;46.204;5.220;2023-02-28T18:53:18;99128.66;;;3.53;55.06
48874;BME280;66155;46.204;5.220;2023-02-28T18:58:19;99135.78;;;3.51;54.52
48874;BME280;66155;46.204;5.220;2023-02-28T19:03:19;99128.88;;;3.52;55.06
48874;BME280;66155;46.204;5.220;2023-02-28T19:08:20;99134.94;;;3.44;54.50
48874;BME280;66155;46.204;5.220;2023-02-28T19:13:20;99132.94;;;3.39;54.94
48874;BME280;66155;46.204;5.220;2023-02-28T19:18:21;99118.44;;;3.32;55.02
48874;BME280;66155;46.204;5.220;2023-02-28T19:23:21;99128.88;;;3.23;55.02
48874;BME280;66155;46.204;5.220;2023-02-28T19:28:22;99134.41;;;3.20;54.84
48874;BME280;66155;46.204;5.220;2023-02-28T19:33:23;99128.03;;;3.16;55.00
48874;BME280;66155;46.204;5.220;2023-02-28T19:38:23;99131.72;;;3.07;55.78
48874;BME280;66155;46.204;5.220;2023-02-28T19:43:24;99130.41;;;2.90;55.83
48874;BME280;66155;46.204;5.220;2023-02-28T19:48:25;99121.34;;;2.72;56.10
48874;BME280;66155;46.204;5.220;2023-02-28T19:53:31;99129.72;;;2.59;56.73
48874;BME280;66155;46.204;5.220;2023-02-28T19:58:33;99129.06;;;2.51;56.70
48874;BME280;66155;46.204;5.220;2023-02-28T20:03:34;99123.06;;;2.43;56.83
48874;BME280;66155;46.204;5.220;2023-02-28T20:08:35;99133.97;;;2.31;57.33
48874;BME280;66155;46.204;5.220;2023-02-28T20:13:37;99136.50;;;2.24;57.48
48874;BME280;66155;46.204;5.220;2023-02-28T20:18:39;99132.59;;;2.13;57.85
48874;BME280;66155;46.204;5.220;2023-02-28T20:23:40;99133.16;;;2.08;57.54
48874;BME280;66155;46.204;5.220;2023-02-28T20:28:42;99124.75;;;2.00;57.61
48874;BME280;66155;46.204;5.220;2023-02-28T20:33:43;99119.09;;;1.89;57.93
48874;BME280;66155;46.204;5.220;2023-02-28T20:38:44;99124.13;;;1.83;58.14
48874;BME280;66155;46.204;5.220;2023-02-28T20:43:45;99128.22;;;1.77;57.93
48874;BME280;66155;46.204;5.220;2023-02-28T20:48:46;99127.50;;;1.68;58.76
48874;BME280;66155;46.204;5.220;2023-02-28T20:53:46;99122.47;;;1.60;58.89
48874;BME280;66155;46.204;5.220;2023-02-28T20:58:47;99133.44;;;1.54;58.94
48874;BME280;66155;46.204;5.220;2023-02-28T21:03:50;99138.69;;;1.46;58.88
48874;BME280;66155;46.204;5.220;2023-02-28T21:08:51;99133.09;;;1.42;58.77
48874;BME280;66155;46.204;5.220;2023-02-28T21:13:53;99127.75;;;1.29;59.64
48874;BME280;66155;46.204;5.220;2023-02-28T21:18:54;99132.00;;;1.22;59.10
48874;BME280;66155;46.204;5.220;2023-02-28T21:23:55;99137.19;;;1.13;59.77
48874;BME280;66155;46.204;5.220;2023-02-28T21:28:57;99138.34;;;1.11;59.12
48874;BME280;66155;46.204;5.220;2023-02-28T21:34:00;99140.19;;;1.02;59.54
48874;BME280;66155;46.204;5.220;2023-02-28T21:44:13;99128.22;;;0.94;60.35
48874;BME280;66155;46.204;5.220;2023-02-28T21:49:17;99124.41;;;0.90;60.38
48874;BME280;66155;46.204;5.220;2023-02-28T21:54:17;99118.97;;;0.85;60.07
48874;BME280;66155;46.204;5.220;2023-02-28T21:59:18;99114.22;;;0.82;60.14
48874;BME280;66155;46.204;5.220;2023-02-28T22:04:19;99113.94;;;0.77;60.47
48874;BME280;66155;46.204;5.220;2023-02-28T22:09:25;99105.94;;;0.72;60.57
48874;BME280;66155;46.204;5.220;2023-02-28T22:14:25;99110.47;;;0.70;60.71
48874;BME280;66155;46.204;5.220;2023-02-28T22:19:26;99114.16;;;0.67;60.49
48874;BME280;66155;46.204;5.220;2023-02-28T22:24:26;99101.84;;;0.63;60.93
48874;BME280;66155;46.204;5.220;2023-02-28T22:29:27;99118.38;;;0.60;61.16
48874;BME280;66155;46.204;5.220;2023-02-28T22:34:28;99109.25;;;0.57;61.17
48874;BME280;66155;46.204;5.220;2023-02-28T22:39:28;99110.59;;;0.53;61.14
48874;BME280;66155;46.204;5.220;2023-02-28T22:44:29;99108.97;;;0.52;60.63
48874;BME280;66155;46.204;5.220;2023-02-28T22:49:29;99108.97;;;0.52;61.30
48874;BME280;66155;46.204;5.220;2023-02-28T22:54:30;99097.19;;;0.43;61.05
48874;BME280;66155;46.204;5.220;2023-02-28T22:59:30;99098.47;;;0.39;61.33
48874;BME280;66155;46.204;5.220;2023-02-28T23:04:31;99103.13;;;0.35;60.89
48874;BME280;66155;46.204;5.220;2023-02-28T23:09:31;99104.16;;;0.26;62.09
48874;BME280;66155;46.204;5.220;2023-02-28T23:14:32;99102.47;;;0.18;61.79
48874;BME280;66155;46.204;5.220;2023-02-28T23:19:33;99100.53;;;0.12;62.25
48874;BME280;66155;46.204;5.220;2023-02-28T23:24:34;99103.47;;;0.09;61.78
48874;BME280;66155;46.204;5.220;2023-02-28T23:29:35;99106.34;;;0.06;61.87
48874;BME280;66155;46.204;5.220;2023-02-28T23:34:36;99104.13;;;0.03;62.52
48874;BME280;66155;46.204;5.220;2023-02-28T23:39:37;99108.00;;;-0.01;61.91
48874;BME280;66155;46.204;5.220;2023-02-28T23:44:37;99101.63;;;-0.05;62.41
48874;BME280;66155;46.204;5.220;2023-02-28T23:49:38;99103.53;;;-0.07;62.05
48874;BME280;66155;46.204;5.220;2023-02-28T23:54:39;99103.72;;;-0.09;61.91
48874;BME280;66155;46.204;5.220;2023-02-28T23:59:39;99099.25;;;-0.15;62.30
